Webcam Meteoipassi more information Webcam Meteoipassi


altri nostri siti meteo:

Pomeziameteo 1Sito sul meteo

MeteopomeziaSito sul meteo

Pomeziameteo DashboardSito sul meteo

Caput FrigorisSito sul meteo

BarcellonameteoSito sul meteo

ViterbometeoSito sul meteo

MeteotortoretoSito sul meteo

TortoretometeolidoSito sul meteo

MeteoGonzagaSito sul meteo



There is a communication problem. Go directly to the Meteoalarm site : www.meteoalarm.eu and check the Weather-warnings there .


Notice: Undefined offset: 6 in /web/htdocs/www.meteoipassi.it/home/weather28/metar/metarDisplay.php on line 75

Notice: Undefined offset: 5 in /web/htdocs/www.meteoipassi.it/home/weather28/metar/metarDisplay.php on line 75

Report METAR

   
LIRQ - Firenze
Dati ricevuti: Jun 13 2024 5:20 am
Molto nuvoloso  
Molto nuvoloso  
   Vento: SE 5.6 km/h
Vento: SE 5.6 km/h
Temperatura: 16°C
P.to Rugiada: 12°C
Umidita: 77%
Barometro: 1015 hPa
Nuvole: Molto nuvoloso
Visibilita: oltre 10 km
dettagli cloud: Molto nuvoloso 853.4 m
LIRQ 130320Z 14003KT 9999 BKN028 16/12 Q1015
LIRP - Lucca
Dati ricevuti: Jun 13 2024 4:45 am
Parzialmente nuvoloso  
Parzialmente nuvoloso  
   Vento: Variabile 3.7 km/h
Vento: Variabile 3.7 km/h
Temperatura: 17°C
P.to Rugiada: 16°C
Umidita: 94%
Barometro: 1014 hPa
Nuvole: Parzialmente nuvoloso
Visibilita: oltre 10 km
dettagli cloud: Poche nuvole 914.4 m,
Parzialmente nuvoloso 1219.2 m
LIRP 130245Z VRB02KT 9999 FEW030 SCT040 17/16 Q1014 NOSIG
LIPE - Bologna
Dati ricevuti: Jun 13 2024 5:20 am
Molto nuvoloso  
Molto nuvoloso  
   Vento: Variabile 1.9 km/h
Vento: Variabile 1.9 km/h
Temperatura: 15°C
P.to Rugiada: 13°C
Umidita: 88%
Barometro: 1014 hPa
Nuvole: Molto nuvoloso
Visibilita: oltre 10 km
dettagli cloud: Parzialmente nuvoloso 1005.8 m,
Molto nuvoloso 2133.6 m
LIPE 130320Z VRB01KT 9999 SCT033 BKN070 15/13 Q1014
LIMP - Parma
Dati ricevuti: Jun 12 2024 10:50 pm
DATI Obsoleti
Poche nuvole  
Poche nuvole  
   Vento: Variabile 3.7 km/h
Vento: Variabile 3.7 km/h
Temperatura: 15°C
P.to Rugiada: 13°C
Umidita: 88%
Barometro: 1014 hPa
Nuvole: Poche nuvole
Visibilita: oltre 10 km
dettagli cloud: Poche nuvole 609.6 m
LIMP 122050Z VRB02KT 9999 FEW020 15/13 Q1014
  

Script sviluppato da  Saratoga-weather.org Adattato per il modello da  Weerstation Leuven

Potete trovare le nostre info meteo anche a:

European Weather Network

Weather Underground

AWEKAS

HAMweather, WeatherForYou, PWS Weather

Strumentazione usata:

Stazione meteo
Davis Vantage Vue

Programma gestore dati meteo
WVIEW

Server per i dati meteo
WDS-5

Provider
Anemos WDS-5

Davis Vantage Vue

WVIEW

WDS-5

Anemos WDS-5